CBE weather

Greater Cumberland Regional Airport
Cumberland, Maryland, United States

Public forecast

Using degrees Fahrenheit for public forecast. Weather courtesy of forecast.io.

METAR (pilot weather report)

Retrieved 2019/05/22 18:40 UTC (0 seconds ago):

KCBE 221840Z AUTO 18005KT 10SM CLR 22/09 A3027 RMK AO2 T02180087

TAF (pilot weather forecast)

Closest forecast is Eastern WV Regional Airport/Shepherd Field, 38.2 nm (70.7 km) ESE. Retrieved 2019/05/22 18:24 UTC (14 minutes ago):

TAF KMRB 221723Z 2218/2318 15006KT P6SM FEW080 BKN200 FM230100 VRB03KT P6SM SCT050 SCT200 FM230600 17005KT P6SM VCSH BKN050 BKN200 FM231200 20007KT P6SM SCT050 SCT200 FM231600 22008G16KT P6SM SCT050 BKN200